Time;durP1;ratioP1;P1;durP2;ratioP2;P2;SDS_P1;SDS_P2;PMS_P1;PMS_P2;Temp;Humidity;BMP_temperature;BMP_pressure;BME280_temperature;BME280_humidity;BME280_pressure;Samples;Min_cycle;Max_cycle;Signal;HPM_P1;HPM_P2
2021/03/26 00:01:46;;;;;;;9.57;4.95;;;6.00;99.90;;;;;;4980958;28;20046;-63
2021/03/26 00:04:13;;;;;;;;;;;5.90;99.90;;;;;;4980299;28;20403;-64
2021/03/26 00:06:43;;;;;;;11.00;4.30;;;5.90;99.90;;;;;;4982771;28;19930;-63
2021/03/26 00:09:19;;;;;;;10.65;5.55;;;5.90;99.90;;;;;;4976393;28;20070;-68
2021/03/26 00:11:46;;;;;;;12.65;5.57;;;5.80;99.90;;;;;;4979546;28;20484;-67
2021/03/26 00:14:13;;;;;;;10.32;6.68;;;5.70;99.90;;;;;;4978721;28;20662;-62
2021/03/26 00:16:40;;;;;;;7.75;5.35;;;5.70;99.90;;;;;;4985145;28;20065;-66
2021/03/26 00:19:08;;;;;;;8.35;5.90;;;5.70;99.90;;;;;;4976071;28;20047;-65
2021/03/26 00:21:35;;;;;;;12.77;6.78;;;5.70;99.90;;;;;;4982179;28;20669;-63
2021/03/26 00:24:03;;;;;;;9.50;5.38;;;5.70;99.90;;;;;;4978114;28;20079;-65
2021/03/26 00:26:29;;;;;;;14.57;6.65;;;5.60;99.90;;;;;;4981841;28;20058;-65
2021/03/26 00:29:17;;;;;;;8.93;6.60;;;5.60;99.90;;;;;;4977822;28;20046;-64
2021/03/26 00:31:44;;;;;;;12.38;6.88;;;5.50;99.90;;;;;;4978749;28;20396;-63
2021/03/26 00:34:10;;;;;;;10.38;6.50;;;5.50;99.90;;;;;;4978669;28;20091;-62
2021/03/26 00:36:37;;;;;;;9.98;6.97;;;5.40;99.90;;;;;;4978562;28;20108;-65
2021/03/26 00:39:08;;;;;;;11.43;6.38;;;5.40;99.90;;;;;;4977110;28;20055;-63
2021/03/26 00:41:36;;;;;;;12.32;6.55;;;5.50;99.90;;;;;;4980752;28;20061;-62
2021/03/26 00:44:02;;;;;;;11.52;6.45;;;5.40;99.90;;;;;;4981144;28;20046;-61
2021/03/26 00:46:29;;;;;;;10.10;5.22;;;5.40;99.90;;;;;;4981224;28;20577;-62
2021/03/26 00:48:56;;;;;;;14.07;5.95;;;5.40;99.90;;;;;;4980850;28;20046;-62
2021/03/26 00:51:23;;;;;;;9.98;5.82;;;5.40;99.90;;;;;;4978841;28;20056;-61
2021/03/26 00:53:49;;;;;;;9.52;5.22;;;5.40;99.90;;;;;;4976125;28;20154;-64
2021/03/26 00:56:16;;;;;;;10.93;5.15;;;5.50;99.90;;;;;;4981133;28;20066;-64
2021/03/26 00:58:43;;;;;;;15.82;6.32;;;5.50;99.90;;;;;;4980405;28;20459;-61
2021/03/26 01:01:10;;;;;;;10.90;6.75;;;5.60;99.90;;;;;;4978664;28;20081;-63
2021/03/26 01:03:37;;;;;;;8.60;6.32;;;5.60;99.90;;;;;;4977413;28;20157;-64
2021/03/26 01:06:06;;;;;;;16.85;7.80;;;5.60;99.90;;;;;;4979468;28;20340;-62
2021/03/26 01:08:37;;;;;;;9.07;6.97;;;5.70;99.90;;;;;;4976534;28;20572;-64
2021/03/26 01:11:18;;;;;;;11.80;7.80;;;5.70;99.90;;;;;;4978487;28;20437;-65
2021/03/26 01:13:46;;;;;;;17.17;6.47;;;5.70;99.90;;;;;;4979463;28;20465;-69
2021/03/26 01:16:15;;;;;;;11.70;7.32;;;5.70;99.90;;;;;;4979764;28;20435;-67
2021/03/26 01:18:43;;;;;;;13.88;7.05;;;5.70;99.90;;;;;;4993536;28;20058;-63
2021/03/26 01:21:18;;;;;;;8.95;7.32;;;5.80;99.90;;;;;;4978997;28;20061;-62
2021/03/26 01:23:47;;;;;;;11.73;7.95;;;5.80;99.90;;;;;;4974847;28;20060;-64
2021/03/26 01:26:14;;;;;;;14.00;8.48;;;5.80;99.90;;;;;;4980191;28;20051;-63
2021/03/26 01:28:58;;;;;;;15.90;8.07;;;5.80;99.90;;;;;;4980407;28;20049;-65
2021/03/26 01:31:32;;;;;;;13.05;7.47;;;5.80;99.90;;;;;;4980944;28;20387;-64
2021/03/26 01:34:02;;;;;;;15.45;7.75;;;5.80;99.90;;;;;;4978626;28;20050;-65
2021/03/26 01:36:33;;;;;;;16.02;9.60;;;5.80;99.90;;;;;;4980240;28;20046;-64
2021/03/26 01:39:03;;;;;;;18.85;8.70;;;5.80;99.90;;;;;;4976391;28;20093;-62
2021/03/26 01:41:42;;;;;;;16.50;8.63;;;5.80;99.90;;;;;;4984750;28;20054;-63
2021/03/26 01:44:18;;;;;;;10.93;9.40;;;5.80;99.90;;;;;;4977057;28;20049;-63
2021/03/26 01:46:47;;;;;;;19.15;9.20;;;5.80;99.90;;;;;;4985788;28;20047;-65
2021/03/26 01:49:18;;;;;;;17.23;9.13;;;5.80;99.90;;;;;;4981060;28;20463;-65
2021/03/26 01:51:49;;;;;;;17.58;10.48;;;5.90;99.90;;;;;;4998075;28;20054;-65
2021/03/26 01:54:20;;;;;;;13.70;8.68;;;5.90;99.90;;;;;;4980481;28;20489;-62
2021/03/26 01:56:48;;;;;;;14.77;7.78;;;5.90;99.90;;;;;;4980419;28;20062;-61
2021/03/26 01:59:20;;;;;;;15.40;10.85;;;5.90;99.90;;;;;;4979847;28;20061;-62
2021/03/26 02:01:53;;;;;;;11.52;7.72;;;5.90;99.90;;;;;;4980768;28;20333;-64
2021/03/26 02:04:26;;;;;;;21.92;10.07;;;5.90;99.90;;;;;;4995452;28;20051;-63
2021/03/26 02:06:58;;;;;;;16.58;9.85;;;5.90;99.90;;;;;;4987117;28;20622;-62
2021/03/26 02:09:30;;;;;;;15.15;9.10;;;5.80;99.90;;;;;;4981083;28;20061;-61
2021/03/26 02:12:21;;;;;;;19.73;10.18;;;5.90;99.90;;;;;;4974319;28;20126;-66
2021/03/26 02:15:04;;;;;;;13.68;9.27;;;5.90;99.90;;;;;;4974387;28;20058;-61
2021/03/26 02:17:32;;;;;;;16.45;9.95;;;5.90;99.90;;;;;;4995627;28;20053;-62
2021/03/26 02:20:10;;;;;;;20.63;12.57;;;5.80;99.90;;;;;;4979096;28;20054;-62
2021/03/26 02:22:37;;;;;;;18.83;11.40;;;5.90;99.90;;;;;;4999291;28;20069;-64
2021/03/26 02:25:11;;;;;;;15.88;10.73;;;5.90;99.90;;;;;;4978258;28;20053;-65
2021/03/26 02:27:38;;;;;;;21.98;12.15;;;5.90;99.90;;;;;;5013430;28;20046;-61
2021/03/26 02:30:20;;;;;;;18.92;12.23;;;5.90;99.90;;;;;;4981871;28;20465;-62
2021/03/26 02:32:49;;;;;;;19.20;12.20;;;5.90;99.90;;;;;;4977789;28;20042;-65
2021/03/26 02:35:23;;;;;;;18.77;12.73;;;5.80;99.90;;;;;;4976185;28;20061;-64
2021/03/26 02:38:16;;;;;;;22.73;14.18;;;5.80;99.90;;;;;;4980648;28;20054;-64
2021/03/26 02:40:48;;;;;;;20.08;11.65;;;5.80;99.90;;;;;;4978153;28;20393;-65
2021/03/26 02:43:22;;;;;;;19.85;12.90;;;5.70;99.90;;;;;;5013184;28;20046;-63
2021/03/26 02:46:08;;;;;;;22.42;13.05;;;5.70;99.90;;;;;;4978981;28;20058;-61
2021/03/26 02:48:51;;;;;;;18.42;11.98;;;5.60;99.90;;;;;;4980009;28;20060;-65
2021/03/26 02:51:31;;;;;;;23.27;12.27;;;5.60;99.90;;;;;;4994032;28;20167;-65
2021/03/26 02:54:09;;;;;;;19.15;11.45;;;5.50;99.90;;;;;;4974937;28;20120;-63
2021/03/26 02:56:54;;;;;;;23.88;13.48;;;5.50;99.90;;;;;;4993909;28;20048;-63
2021/03/26 02:59:27;;;;;;;21.02;12.82;;;5.40;99.90;;;;;;4985277;28;20053;-65
2021/03/26 03:01:59;;;;;;;21.35;13.27;;;5.40;99.90;;;;;;4979774;28;20069;-63
2021/03/26 03:04:43;;;;;;;;;;;5.40;99.90;;;;;;4980688;28;20050;-63
2021/03/26 03:07:24;;;;;;;17.48;10.93;;;5.30;99.90;;;;;;4991959;28;19930;-64
2021/03/26 03:10:41;;;;;;;19.92;12.38;;;5.30;99.90;;;;;;4976234;28;20053;-63
2021/03/26 03:13:22;;;;;;;24.13;12.68;;;5.20;99.90;;;;;;4996494;28;20396;-67
2021/03/26 03:16:07;;;;;;;24.67;11.95;;;5.10;99.90;;;;;;4978756;28;20568;-62
2021/03/26 03:18:50;;;;;;;22.00;12.25;;;5.00;99.90;;;;;;4998488;28;20042;-66
2021/03/26 03:21:33;;;;;;;22.95;13.00;;;5.00;99.90;;;;;;4981811;28;20081;-65
2021/03/26 03:24:27;;;;;;;24.33;11.90;;;5.00;99.90;;;;;;4991449;28;20054;-66
2021/03/26 03:27:15;;;;;;;24.40;13.02;;;4.90;99.90;;;;;;4981878;28;20582;-63
2021/03/26 03:30:11;;;;;;;24.95;13.00;;;5.00;99.90;;;;;;4980901;28;20503;-64
2021/03/26 03:33:41;;;;;;;23.27;13.18;;;4.90;99.90;;;;;;4975727;28;20100;-62
2021/03/26 03:36:14;;;;;;;21.13;14.65;;;4.90;99.90;;;;;;4937983;28;20055;-67
2021/03/26 03:39:12;;;;;;;26.02;14.70;;;5.00;99.90;;;;;;4979465;28;20512;-65
2021/03/26 03:42:38;;;;;;;23.88;16.45;;;5.00;99.90;;;;;;4958692;28;20054;-70
2021/03/26 03:45:22;;;;;;;21.20;14.35;;;5.00;99.90;;;;;;4993979;28;20054;-62
2021/03/26 03:48:00;;;;;;;23.27;13.80;;;5.00;99.90;;;;;;4979260;28;20392;-62
2021/03/26 03:50:53;;;;;;;23.35;14.55;;;5.00;99.90;;;;;;5009217;28;20063;-63
2021/03/26 03:53:27;;;;;;;25.63;15.60;;;5.10;99.90;;;;;;4982147;28;20074;-67
2021/03/26 03:56:28;;;;;;;26.70;16.02;;;5.10;99.90;;;;;;4989638;28;20054;-64
2021/03/26 03:59:07;;;;;;;27.50;17.10;;;5.10;99.90;;;;;;4981533;28;20062;-63
2021/03/26 04:02:05;;;;;;;26.05;15.80;;;5.10;99.90;;;;;;4979531;28;20128;-63
2021/03/26 04:04:56;;;;;;;33.40;16.05;;;5.10;99.90;;;;;;4979455;28;20050;-62
2021/03/26 04:07:31;;;;;;;24.92;18.10;;;5.00;99.90;;;;;;4993750;28;20049;-62
2021/03/26 04:10:06;;;;;;;29.30;16.42;;;5.00;99.90;;;;;;4983994;28;20515;-63
2021/03/26 04:12:40;;;;;;;26.13;16.67;;;5.00;99.90;;;;;;4983527;28;20192;-69
2021/03/26 04:15:34;;;;;;;26.35;17.27;;;5.00;99.90;;;;;;4983245;28;20487;-65
2021/03/26 04:18:17;;;;;;;29.30;18.52;;;4.90;99.90;;;;;;4980199;28;20369;-61
2021/03/26 04:21:15;;;;;;;24.77;17.17;;;4.90;99.90;;;;;;4981076;28;20096;-67
2021/03/26 04:24:38;;;;;;;29.70;18.50;;;4.90;99.90;;;;;;4965850;28;20050;-66
2021/03/26 04:27:36;;;;;;;33.00;17.95;;;4.80;99.90;;;;;;4981578;28;20137;-67
2021/03/26 04:30:30;;;;;;;31.50;19.58;;;4.90;99.90;;;;;;4963348;28;20122;-63
2021/03/26 04:33:15;;;;;;;28.02;19.92;;;4.90;99.90;;;;;;4978010;28;20431;-68
2021/03/26 04:35:45;;;;;;;33.17;18.98;;;4.90;99.90;;;;;;4975788;28;20074;-66
2021/03/26 04:38:24;;;;;;;36.45;21.23;;;4.90;99.90;;;;;;5001592;28;20575;-66
2021/03/26 04:41:00;;;;;;;29.63;17.55;;;4.90;99.90;;;;;;4978192;28;20611;-64
2021/03/26 04:43:48;;;;;;;33.22;18.92;;;4.80;99.90;;;;;;4981267;28;20168;-62
2021/03/26 04:46:31;;;;;;;26.40;17.23;;;4.80;99.90;;;;;;4977652;28;20503;-62
2021/03/26 04:49:26;;;;;;;32.45;18.23;;;4.80;99.90;;;;;;4981017;28;20045;-63
2021/03/26 04:52:08;;;;;;;31.35;17.95;;;4.80;99.90;;;;;;4979495;28;20058;-61
2021/03/26 04:55:12;;;;;;;31.95;18.10;;;4.80;99.90;;;;;;4990171;28;20137;-61
2021/03/26 04:58:01;;;;;;;27.67;18.13;;;4.90;99.90;;;;;;4977978;28;20058;-65
2021/03/26 05:01:14;;;;;;;24.48;17.77;;;4.90;99.90;;;;;;4978894;28;20113;-63
2021/03/26 05:03:56;;;;;;;35.80;17.95;;;4.90;99.90;;;;;;4990782;28;20151;-69
2021/03/26 05:06:28;;;;;;;26.75;17.38;;;4.90;99.90;;;;;;4992739;28;20616;-64
2021/03/26 05:09:05;;;;;;;26.23;18.48;;;4.80;99.90;;;;;;4976873;28;20116;-62
2021/03/26 05:12:33;;;;;;;27.63;17.48;;;4.90;99.90;;;;;;4974263;28;20058;-64
2021/03/26 05:15:14;;;;;;;30.17;15.45;;;4.90;99.90;;;;;;4976209;28;20081;-63
2021/03/26 05:18:08;;;;;;;21.55;13.98;;;4.90;99.90;;;;;;4991667;28;20484;-63
2021/03/26 05:20:53;;;;;;;24.05;15.95;;;4.90;99.90;;;;;;4993709;28;20046;-63
2021/03/26 05:23:25;;;;;;;22.13;13.98;;;5.00;99.90;;;;;;4979860;28;20050;-66
2021/03/26 05:25:58;;;;;;;24.40;14.85;;;4.90;99.90;;;;;;4977318;28;20054;-65
2021/03/26 05:28:36;;;;;;;21.65;14.45;;;4.90;99.90;;;;;;4981078;28;20065;-62
2021/03/26 05:31:30;;;;;;;22.58;12.43;;;5.00;99.90;;;;;;4977960;28;20043;-64
2021/03/26 05:34:09;;;;;;;19.88;12.38;;;5.00;99.90;;;;;;4992752;28;20614;-67
2021/03/26 05:36:41;;;;;;;21.60;12.38;;;5.00;99.90;;;;;;5009751;28;20168;-69
2021/03/26 05:39:33;;;;;;;22.20;12.20;;;5.00;99.90;;;;;;4981892;28;20046;-62
2021/03/26 05:42:41;;;;;;;24.58;13.43;;;5.00;99.90;;;;;;4977623;28;20194;-62
2021/03/26 05:45:43;;;;;;;18.00;11.73;;;5.00;99.90;;;;;;4980929;28;20060;-62
2021/03/26 05:48:34;;;;;;;22.35;11.82;;;5.00;99.90;;;;;;4979325;28;20065;-61
2021/03/26 05:51:34;;;;;;;21.65;14.05;;;5.10;99.90;;;;;;5007853;28;20085;-64
2021/03/26 05:54:34;;;;;;;22.55;11.65;;;5.10;99.90;;;;;;4977272;28;20054;-69
2021/03/26 05:57:55;;;;;;;17.55;11.35;;;5.20;99.90;;;;;;4977659;28;20056;-62
2021/03/26 06:01:12;;;;;;;14.23;10.18;;;5.10;99.90;;;;;;4949091;28;20159;-68
2021/03/26 06:04:09;;;;;;;20.58;12.80;;;5.20;99.90;;;;;;4882194;29;20055;-63
2021/03/26 06:07:13;;;;;;;26.02;12.05;;;5.10;99.90;;;;;;4918482;29;20103;-63
2021/03/26 06:10:12;;;;;;;21.98;12.57;;;5.10;99.90;;;;;;4960326;28;20189;-63
2021/03/26 06:13:06;;;;;;;19.17;12.00;;;5.10;99.90;;;;;;4969237;28;20053;-62
2021/03/26 06:16:21;;;;;;;24.45;12.65;;;5.10;99.90;;;;;;4976188;28;20054;-63
2021/03/26 06:19:07;;;;;;;18.75;11.65;;;5.20;99.90;;;;;;4977283;28;20061;-61
2021/03/26 06:22:17;;;;;;;18.50;11.65;;;5.20;99.90;;;;;;4974259;28;20061;-67
2021/03/26 06:25:28;;;;;;;22.02;11.80;;;5.20;99.90;;;;;;4979498;28;20136;-64
2021/03/26 06:28:18;;;;;;;23.42;11.82;;;5.30;99.90;;;;;;4992409;28;20046;-67
2021/03/26 06:31:03;;;;;;;17.83;10.80;;;5.30;99.90;;;;;;4979032;28;20652;-62
2021/03/26 06:34:26;;;;;;;17.50;10.27;;;5.40;99.90;;;;;;4994867;28;20052;-63
2021/03/26 06:37:14;;;;;;;23.55;9.88;;;5.50;99.90;;;;;;4981138;28;20058;-63
2021/03/26 06:40:05;;;;;;;13.57;9.38;;;5.50;99.90;;;;;;4980646;28;20127;-64
2021/03/26 06:42:46;;;;;;;26.15;11.85;;;5.60;99.90;;;;;;4982549;28;20061;-66
2021/03/26 06:45:33;;;;;;;;;;;5.80;99.90;;;;;;4982307;28;20051;-63
2021/03/26 06:48:44;;;;;;;24.95;13.40;;;5.80;99.90;;;;;;4979296;28;19921;-65
2021/03/26 06:51:19;;;;;;;24.10;11.27;;;6.00;99.90;;;;;;4981100;28;20145;-68
2021/03/26 06:54:05;;;;;;;23.67;12.02;;;6.10;99.90;;;;;;4978005;28;20420;-61
2021/03/26 06:57:13;;;;;;;19.42;10.27;;;6.10;99.90;;;;;;4980585;28;20056;-61
2021/03/26 07:00:24;;;;;;;28.65;14.82;;;6.20;99.90;;;;;;4979647;28;20792;-64
2021/03/26 07:03:24;;;;;;;32.60;14.30;;;6.30;99.90;;;;;;4960659;28;20468;-63
2021/03/26 07:05:57;;;;;;;26.90;14.05;;;6.50;99.90;;;;;;4978361;28;20058;-65
2021/03/26 07:08:34;;;;;;;25.83;15.63;;;6.70;99.90;;;;;;4992060;28;20057;-66
2021/03/26 07:11:19;;;;;;;29.65;15.35;;;6.80;99.90;;;;;;4980370;28;20129;-62
2021/03/26 07:14:02;;;;;;;21.35;12.98;;;7.00;99.90;;;;;;4979402;28;20042;-62
2021/03/26 07:16:57;;;;;;;28.05;11.57;;;7.10;99.90;;;;;;4978433;28;20038;-63
2021/03/26 07:20:07;;;;;;;23.30;13.10;;;7.20;99.90;;;;;;4971432;28;20054;-64
2021/03/26 07:22:39;;;;;;;19.10;14.00;;;7.20;99.90;;;;;;4948806;28;20093;-65
2021/03/26 07:25:56;;;;;;;24.08;14.27;;;7.30;99.90;;;;;;4993671;28;20080;-65
2021/03/26 07:28:38;;;;;;;25.10;15.35;;;7.50;99.90;;;;;;4960543;28;20065;-63
2021/03/26 07:31:27;;;;;;;28.08;14.40;;;7.50;99.90;;;;;;4991765;28;20066;-65
2021/03/26 07:34:14;;;;;;;35.75;16.48;;;7.60;99.90;;;;;;4977318;28;20108;-64
2021/03/26 07:37:21;;;;;;;32.10;16.38;;;7.70;99.90;;;;;;4981174;28;20137;-66
2021/03/26 07:39:55;;;;;;;29.75;17.50;;;7.70;99.90;;;;;;4989057;28;20046;-62
2021/03/26 07:42:46;;;;;;;23.15;14.55;;;7.80;99.90;;;;;;4979833;28;20128;-65
2021/03/26 07:45:42;;;;;;;26.63;15.52;;;7.80;99.90;;;;;;4980718;28;20108;-63
2021/03/26 07:48:27;;;;;;;31.45;16.17;;;7.90;99.90;;;;;;4978002;28;20050;-62
2021/03/26 07:50:58;;;;;;;29.17;16.50;;;8.00;99.90;;;;;;4977826;28;20060;-69
2021/03/26 07:53:42;;;;;;;27.83;18.60;;;8.10;99.90;;;;;;4979421;28;20065;-66
2021/03/26 07:56:40;;;;;;;24.95;16.67;;;8.10;99.90;;;;;;4976265;28;20050;-63
2021/03/26 07:59:41;;;;;;;27.73;17.10;;;8.20;99.90;;;;;;4984137;28;20061;-64
2021/03/26 08:02:34;;;;;;;33.60;17.85;;;8.30;99.90;;;;;;4979285;28;20392;-62
2021/03/26 08:05:19;;;;;;;30.48;17.80;;;8.40;99.90;;;;;;4979771;28;20138;-66
2021/03/26 08:08:18;;;;;;;29.33;17.10;;;8.50;99.90;;;;;;4990988;28;20062;-68
2021/03/26 08:11:25;;;;;;;23.40;16.63;;;8.60;99.90;;;;;;4966752;28;20046;-68
2021/03/26 08:14:12;;;;;;;32.15;16.17;;;8.80;99.90;;;;;;4973294;28;20042;-65
2021/03/26 08:16:50;;;;;;;36.03;17.95;;;9.00;99.90;;;;;;4979353;28;20050;-62
2021/03/26 08:19:59;;;;;;;27.92;15.10;;;9.10;99.90;;;;;;4980884;28;20054;-70
2021/03/26 08:22:49;;;;;;;30.50;14.25;;;9.30;99.90;;;;;;4978743;28;20042;-66
2021/03/26 08:25:34;;;;;;;24.45;15.63;;;9.50;99.90;;;;;;4978634;28;20039;-61
2021/03/26 08:28:19;;;;;;;30.00;16.02;;;9.50;99.90;;;;;;4977154;28;20073;-63
2021/03/26 08:31:23;;;;;;;32.25;18.88;;;9.60;99.90;;;;;;4979026;28;20514;-69
2021/03/26 08:34:13;;;;;;;26.27;17.20;;;9.80;99.90;;;;;;4978448;28;20076;-65
2021/03/26 08:36:49;;;;;;;35.22;16.50;;;9.80;99.90;;;;;;4981788;28;20417;-62
2021/03/26 08:39:38;;;;;;;31.67;18.55;;;9.90;99.90;;;;;;4978408;28;20049;-67
2021/03/26 08:42:26;;;;;;;33.53;18.20;;;10.00;99.90;;;;;;4976707;28;20069;-63
2021/03/26 08:45:13;;;;;;;31.70;16.80;;;10.00;99.90;;;;;;4978043;28;20061;-62
2021/03/26 08:48:09;;;;;;;27.17;16.02;;;10.10;99.90;;;;;;4973732;28;20092;-65
2021/03/26 08:50:44;;;;;;;28.52;15.88;;;10.20;99.90;;;;;;4980362;28;20097;-63
2021/03/26 08:53:21;;;;;;;28.20;16.60;;;10.30;99.90;;;;;;4977819;28;20416;-67
2021/03/26 08:55:59;;;;;;;30.02;16.50;;;10.30;99.90;;;;;;4977901;28;20713;-65
2021/03/26 08:58:30;;;;;;;27.38;15.65;;;10.30;99.90;;;;;;4977423;28;20405;-65
2021/03/26 09:01:21;;;;;;;39.75;20.85;;;10.40;99.90;;;;;;4980257;28;20054;-64
2021/03/26 09:04:21;;;;;;;33.78;18.40;;;10.50;99.90;;;;;;4978419;28;20301;-64
2021/03/26 09:07:08;;;;;;;27.65;17.20;;;10.50;99.90;;;;;;4978839;28;20551;-64
2021/03/26 09:09:50;;;;;;;31.20;18.73;;;10.50;99.90;;;;;;4974602;28;20046;-62
2021/03/26 09:12:39;;;;;;;30.50;18.90;;;10.60;99.90;;;;;;4979454;28;20066;-67
2021/03/26 09:15:34;;;;;;;29.58;18.58;;;10.60;99.90;;;;;;4977962;28;20476;-64
2021/03/26 09:18:27;;;;;;;31.65;19.20;;;10.60;99.90;;;;;;4977429;28;20049;-62
2021/03/26 09:20:54;;;;;;;21.65;12.32;;;10.70;99.90;;;;;;4972335;28;20138;-62
2021/03/26 09:23:32;;;;;;;16.63;11.60;;;10.10;99.90;;;;;;4980701;28;20137;-66
2021/03/26 09:26:10;;;;;;;20.30;11.68;;;9.70;99.90;;;;;;4975449;28;20055;-62
2021/03/26 09:28:51;;;;;;;31.10;13.80;;;9.40;99.90;;;;;;4978510;28;20100;-63
2021/03/26 09:31:31;;;;;;;21.25;12.25;;;9.20;99.90;;;;;;4974740;28;20053;-64
2021/03/26 09:34:22;;;;;;;27.98;13.45;;;9.10;99.90;;;;;;4977691;28;20072;-68
2021/03/26 09:37:11;;;;;;;26.33;14.48;;;9.10;99.90;;;;;;4977485;28;20050;-64
2021/03/26 09:39:40;;;;;;;28.48;13.98;;;9.30;99.90;;;;;;4979811;28;20057;-65
2021/03/26 09:42:25;;;;;;;24.27;15.60;;;9.50;99.90;;;;;;4978114;28;20129;-64
2021/03/26 09:45:15;;;;;;;32.28;15.65;;;9.70;99.90;;;;;;4981427;28;20081;-61
2021/03/26 09:48:05;;;;;;;27.50;17.95;;;9.80;99.90;;;;;;4976420;28;20662;-63
2021/03/26 09:51:01;;;;;;;27.27;16.35;;;10.00;99.90;;;;;;4978376;28;20433;-64
2021/03/26 09:53:33;;;;;;;36.17;17.98;;;10.10;99.90;;;;;;4979279;28;20054;-63
2021/03/26 09:56:25;;;;;;;20.77;14.68;;;10.10;99.90;;;;;;4979727;28;20042;-65
2021/03/26 09:59:10;;;;;;;25.25;14.85;;;10.00;99.90;;;;;;4977681;28;20108;-66
2021/03/26 10:01:48;;;;;;;30.88;14.80;;;9.80;99.90;;;;;;4973178;28;20061;-65
2021/03/26 10:04:25;;;;;;;32.95;14.95;;;9.70;99.90;;;;;;4979930;28;20058;-63
2021/03/26 10:07:26;;;;;;;29.25;17.20;;;9.80;99.90;;;;;;4981788;28;20047;-66
2021/03/26 10:10:43;;;;;;;34.80;18.70;;;9.90;99.90;;;;;;4981873;28;20054;-62
2021/03/26 10:13:21;;;;;;;33.45;15.85;;;10.10;99.90;;;;;;4979443;28;20042;-64
2021/03/26 10:15:58;;;;;;;26.30;16.23;;;10.20;99.90;;;;;;4983478;28;20823;-61
2021/03/26 10:18:32;;;;;;;25.08;16.02;;;10.40;99.90;;;;;;4980895;28;20062;-61
2021/03/26 10:21:01;;;;;;;26.55;15.02;;;10.50;99.90;;;;;;4985628;28;20062;-62
2021/03/26 10:23:42;;;;;;;21.58;13.57;;;10.70;99.90;;;;;;4980350;28;20054;-63
2021/03/26 10:26:18;;;;;;;25.10;14.95;;;10.90;99.90;;;;;;4985449;28;20048;-62
2021/03/26 10:28:44;;;;;;;25.27;13.18;;;11.00;99.90;;;;;;4981008;28;20057;-63
2021/03/26 10:31:19;;;;;;;21.73;12.65;;;11.20;99.90;;;;;;4984778;28;20481;-66
2021/03/26 10:33:50;;;;;;;31.73;15.75;;;11.20;99.90;;;;;;4974697;28;20058;-61
2021/03/26 10:36:52;;;;;;;25.67;12.90;;;11.20;99.90;;;;;;4984058;28;20054;-66
2021/03/26 10:39:33;;;;;;;27.60;17.15;;;11.20;99.90;;;;;;4980495;28;20054;-62
2021/03/26 10:42:10;;;;;;;23.92;14.85;;;11.20;99.90;;;;;;4979369;28;20074;-62
2021/03/26 10:45:01;;;;;;;23.67;14.82;;;11.10;99.90;;;;;;4981613;28;20042;-65
2021/03/26 10:47:40;;;;;;;27.40;16.10;;;11.20;99.90;;;;;;4983143;28;20461;-69
2021/03/26 10:50:17;;;;;;;24.98;14.50;;;11.30;99.90;;;;;;4979712;28;20074;-66
2021/03/26 10:53:06;;;;;;;21.33;14.32;;;11.20;99.90;;;;;;4978609;28;20589;-64
2021/03/26 10:55:43;;;;;;;29.42;16.88;;;11.20;99.90;;;;;;4982676;28;20558;-63
2021/03/26 10:58:18;;;;;;;23.27;16.90;;;11.20;99.90;;;;;;4979537;28;20051;-63
2021/03/26 11:00:48;;;;;;;20.88;14.55;;;11.40;99.90;;;;;;4984612;28;20232;-61
2021/03/26 11:03:24;;;;;;;23.48;13.93;;;11.50;99.90;;;;;;4979310;28;20057;-66
2021/03/26 11:05:52;;;;;;;24.35;16.05;;;11.60;99.90;;;;;;4981494;28;20065;-64
2021/03/26 11:08:55;;;;;;;30.63;19.20;;;11.70;99.90;;;;;;4980986;28;20050;-65
2021/03/26 11:11:30;;;;;;;26.88;17.70;;;11.70;99.90;;;;;;4934321;28;20050;-69
2021/03/26 11:14:24;;;;;;;32.20;18.35;;;11.70;99.90;;;;;;4976799;28;20129;-62
2021/03/26 11:16:57;;;;;;;31.27;16.38;;;11.70;99.90;;;;;;4974631;28;20073;-63
2021/03/26 11:19:31;;;;;;;31.35;17.63;;;11.80;99.90;;;;;;4979006;28;20474;-66
2021/03/26 11:22:18;;;;;;;27.85;16.70;;;11.80;99.90;;;;;;4981372;28;20046;-62
2021/03/26 11:25:04;;;;;;;28.70;17.17;;;11.80;99.90;;;;;;4980397;28;20054;-62
2021/03/26 11:27:45;;;;;;;24.58;12.90;;;11.80;99.90;;;;;;4980365;28;20050;-66
2021/03/26 11:30:35;;;;;;;24.40;12.88;;;11.80;99.90;;;;;;4977397;28;21376;-66
2021/03/26 11:33:17;;;;;;;26.23;13.82;;;11.80;99.90;;;;;;4981936;28;20066;-63
2021/03/26 11:35:46;;;;;;;24.60;13.57;;;11.90;99.90;;;;;;4980606;28;20045;-68
2021/03/26 11:38:23;;;;;;;14.68;11.13;;;11.90;99.90;;;;;;4980396;28;20046;-67
2021/03/26 11:41:10;;;;;;;21.75;11.63;;;11.90;99.90;;;;;;4981819;28;20049;-66
2021/03/26 11:43:40;;;;;;;23.90;11.20;;;12.00;99.90;;;;;;4978192;28;20853;-62
2021/03/26 11:46:22;;;;;;;27.38;10.80;;;12.10;99.90;;;;;;4979972;28;20073;-61
2021/03/26 11:48:59;;;;;;;22.65;12.73;;;12.00;99.90;;;;;;4981087;28;20187;-66
2021/03/26 11:51:39;;;;;;;22.80;10.40;;;12.20;99.90;;;;;;4984211;28;20157;-64
2021/03/26 11:54:13;;;;;;;14.20;10.20;;;12.40;99.90;;;;;;4981709;28;20116;-70
2021/03/26 11:56:58;;;;;;;20.73;12.07;;;12.50;99.90;;;;;;4986906;28;20096;-66
2021/03/26 12:00:05;;;;;;;20.02;11.40;;;12.50;99.90;;;;;;4976772;28;20416;-63
2021/03/26 12:02:41;;;;;;;18.45;11.60;;;12.30;99.90;;;;;;4968189;28;20144;-70
2021/03/26 12:05:31;;;;;;;23.08;10.55;;;12.20;99.90;;;;;;4980570;28;20082;-65
2021/03/26 12:08:37;;;;;;;19.67;11.52;;;12.20;99.90;;;;;;4977861;28;20144;-63
2021/03/26 12:11:07;;;;;;;22.58;11.93;;;12.10;99.90;;;;;;4980461;28;20050;-64
2021/03/26 12:13:39;;;;;;;20.52;11.52;;;11.90;99.90;;;;;;4980932;28;20578;-65
2021/03/26 12:16:14;;;;;;;25.80;10.30;;;11.80;99.90;;;;;;4979280;28;20061;-67
2021/03/26 12:19:03;;;;;;;27.02;11.68;;;11.80;99.90;;;;;;4979570;28;20165;-65
2021/03/26 12:21:35;;;;;;;20.02;9.90;;;11.80;99.90;;;;;;4982157;28;20054;-64
2021/03/26 12:24:31;;;;;;;16.98;10.98;;;11.80;99.90;;;;;;4963016;28;20116;-63
2021/03/26 12:27:07;;;;;;;20.15;9.75;;;12.10;99.90;;;;;;4977673;28;20058;-64
2021/03/26 12:29:36;;;;;;;22.55;10.68;;;11.90;99.90;;;;;;4979407;28;20577;-65
2021/03/26 12:32:06;;;;;;;23.50;9.60;;;11.90;99.90;;;;;;4977664;28;20116;-66
2021/03/26 12:34:36;;;;;;;23.20;10.15;;;11.90;99.90;;;;;;4979694;28;20050;-64
2021/03/26 12:37:07;;;;;;;23.23;9.68;;;11.70;99.90;;;;;;4980695;28;20058;-65
2021/03/26 12:39:42;;;;;;;15.63;9.70;;;11.40;99.90;;;;;;4980790;28;20074;-63
2021/03/26 12:42:09;;;;;;;17.52;7.63;;;11.30;99.90;;;;;;4977130;28;20073;-65
2021/03/26 12:44:39;;;;;;;18.15;8.20;;;11.20;99.90;;;;;;4977820;28;20046;-65
2021/03/26 12:47:34;;;;;;;13.30;7.70;;;11.10;99.90;;;;;;4979284;28;20046;-63
2021/03/26 12:50:21;;;;;;;17.52;8.45;;;11.10;99.90;;;;;;4980861;28;20112;-64
2021/03/26 12:53:12;;;;;;;15.85;6.93;;;11.00;99.90;;;;;;4981870;28;20051;-69
2021/03/26 12:55:53;;;;;;;13.38;6.03;;;10.90;99.90;;;;;;4978402;28;20042;-65
2021/03/26 12:58:38;;;;;;;16.05;6.10;;;10.90;99.90;;;;;;4979294;28;20058;-64
2021/03/26 13:01:38;;;;;;;22.60;5.82;;;11.10;99.90;;;;;;4979673;28;20050;-71
2021/03/26 13:04:33;;;;;;;9.18;4.93;;;11.10;99.90;;;;;;4968981;28;20054;-65
2021/03/26 13:07:05;;;;;;;9.52;5.35;;;11.20;99.90;;;;;;4978127;28;20132;-63
2021/03/26 13:09:58;;;;;;;11.70;5.28;;;11.30;99.90;;;;;;4979113;28;20073;-67
2021/03/26 13:12:32;;;;;;;12.38;5.60;;;11.40;99.90;;;;;;4955111;28;20058;-65
2021/03/26 13:15:25;;;;;;;11.52;5.07;;;11.40;99.90;;;;;;4979481;28;20070;-64
2021/03/26 13:18:11;;;;;;;12.18;5.47;;;11.50;99.90;;;;;;4979468;28;20054;-65
2021/03/26 13:21:09;;;;;;;13.65;4.57;;;11.50;99.90;;;;;;4979647;28;20130;-66
2021/03/26 13:23:37;;;;;;;14.15;5.05;;;11.40;99.90;;;;;;4976270;28;20073;-65
2021/03/26 13:26:08;;;;;;;7.20;4.50;;;11.40;99.90;;;;;;4978350;28;21432;-64
2021/03/26 13:28:41;;;;;;;;;;;11.40;99.90;;;;;;4975607;28;20109;-65
2021/03/26 13:31:13;;;;;;;9.43;4.22;;;11.50;99.90;;;;;;4979322;28;19938;-65
2021/03/26 13:33:54;;;;;;;8.32;4.47;;;11.50;99.90;;;;;;4977219;28;20052;-63
2021/03/26 13:36:30;;;;;;;7.63;3.90;;;11.60;99.90;;;;;;4979812;28;20163;-64
2021/03/26 13:39:08;;;;;;;14.15;5.35;;;11.70;99.90;;;;;;4977930;28;20061;-71
2021/03/26 13:41:49;;;;;;;9.40;5.53;;;11.70;99.90;;;;;;4981341;28;20077;-66
2021/03/26 13:44:18;;;;;;;14.02;6.18;;;11.90;99.90;;;;;;4978672;28;20051;-67
2021/03/26 13:46:48;;;;;;;23.52;5.13;;;12.00;99.90;;;;;;4981922;28;20042;-63
2021/03/26 13:49:24;;;;;;;12.55;4.13;;;12.20;99.90;;;;;;4981647;28;20042;-64
2021/03/26 13:51:55;;;;;;;9.95;4.20;;;12.20;99.90;;;;;;4978690;28;20047;-66
2021/03/26 13:54:39;;;;;;;10.20;4.03;;;12.30;99.90;;;;;;4981863;28;20112;-63
2021/03/26 13:57:31;;;;;;;10.77;4.68;;;12.60;99.90;;;;;;4981492;28;20057;-67
2021/03/26 14:00:08;;;;;;;9.65;3.30;;;12.80;99.90;;;;;;4979408;28;20054;-67